sensor_id;sensor_type;location;lat;lon;timestamp;temperature;humidity
30381;DHT22;17169;50.966;11.038;2024-01-30T00:02:28;5.60;99.90
30381;DHT22;17169;50.966;11.038;2024-01-30T00:05:30;5.50;99.90
30381;DHT22;17169;50.966;11.038;2024-01-30T00:08:33;5.60;99.90
30381;DHT22;17169;50.966;11.038;2024-01-30T00:11:35;5.50;99.90
30381;DHT22;17169;50.966;11.038;2024-01-30T00:14:37;5.50;99.90
30381;DHT22;17169;50.966;11.038;2024-01-30T00:17:41;5.60;99.90
30381;DHT22;17169;50.966;11.038;2024-01-30T00:20:43;5.60;99.90
30381;DHT22;17169;50.966;11.038;2024-01-30T00:23:46;5.60;99.90
30381;DHT22;17169;50.966;11.038;2024-01-30T00:26:49;5.50;99.90
30381;DHT22;17169;50.966;11.038;2024-01-30T00:29:51;5.50;99.90
30381;DHT22;17169;50.966;11.038;2024-01-30T00:32:55;5.50;99.90
30381;DHT22;17169;50.966;11.038;2024-01-30T00:35:57;5.50;99.90
30381;DHT22;17169;50.966;11.038;2024-01-30T00:39:00;5.50;99.90
30381;DHT22;17169;50.966;11.038;2024-01-30T00:42:02;5.50;99.90
30381;DHT22;17169;50.966;11.038;2024-01-30T00:45:06;5.50;99.90
30381;DHT22;17169;50.966;11.038;2024-01-30T00:48:09;5.50;99.90
30381;DHT22;17169;50.966;11.038;2024-01-30T00:51:12;5.60;99.90
30381;DHT22;17169;50.966;11.038;2024-01-30T00:54:14;5.60;99.90
30381;DHT22;17169;50.966;11.038;2024-01-30T00:57:16;5.60;99.90
30381;DHT22;17169;50.966;11.038;2024-01-30T01:00:19;5.60;99.90
30381;DHT22;17169;50.966;11.038;2024-01-30T01:03:23;5.70;99.90
30381;DHT22;17169;50.966;11.038;2024-01-30T01:06:25;5.70;99.90
30381;DHT22;17169;50.966;11.038;2024-01-30T01:09:28;5.70;99.90
30381;DHT22;17169;50.966;11.038;2024-01-30T01:12:30;5.80;99.90
30381;DHT22;17169;50.966;11.038;2024-01-30T01:15:33;5.80;99.90
30381;DHT22;17169;50.966;11.038;2024-01-30T01:18:36;5.80;99.90
30381;DHT22;17169;50.966;11.038;2024-01-30T01:21:39;5.80;99.90
30381;DHT22;17169;50.966;11.038;2024-01-30T01:24:41;5.80;99.90
30381;DHT22;17169;50.966;11.038;2024-01-30T01:27:43;5.90;99.90
30381;DHT22;17169;50.966;11.038;2024-01-30T01:30:52;5.90;99.90
30381;DHT22;17169;50.966;11.038;2024-01-30T01:33:56;6.00;99.90
30381;DHT22;17169;50.966;11.038;2024-01-30T01:36:58;6.00;99.90
30381;DHT22;17169;50.966;11.038;2024-01-30T01:40:01;6.00;99.90
30381;DHT22;17169;50.966;11.038;2024-01-30T01:43:03;6.10;99.90
30381;DHT22;17169;50.966;11.038;2024-01-30T01:46:07;6.00;99.90
30381;DHT22;17169;50.966;11.038;2024-01-30T01:49:12;6.10;99.90
30381;DHT22;17169;50.966;11.038;2024-01-30T01:52:14;6.10;99.90
30381;DHT22;17169;50.966;11.038;2024-01-30T01:55:17;6.10;99.90
30381;DHT22;17169;50.966;11.038;2024-01-30T01:58:23;6.10;99.90
30381;DHT22;17169;50.966;11.038;2024-01-30T02:01:30;6.00;99.90
30381;DHT22;17169;50.966;11.038;2024-01-30T02:04:34;6.00;99.90
30381;DHT22;17169;50.966;11.038;2024-01-30T02:07:37;6.00;99.90
30381;DHT22;17169;50.966;11.038;2024-01-30T02:10:39;6.00;99.90
30381;DHT22;17169;50.966;11.038;2024-01-30T02:13:42;6.00;99.90
30381;DHT22;17169;50.966;11.038;2024-01-30T02:16:44;6.00;99.90
30381;DHT22;17169;50.966;11.038;2024-01-30T02:19:48;6.00;99.90
30381;DHT22;17169;50.966;11.038;2024-01-30T02:22:53;5.90;99.90
30381;DHT22;17169;50.966;11.038;2024-01-30T02:25:56;5.90;99.90
30381;DHT22;17169;50.966;11.038;2024-01-30T02:28:58;5.90;99.90
30381;DHT22;17169;50.966;11.038;2024-01-30T02:32:01;5.90;99.90
30381;DHT22;17169;50.966;11.038;2024-01-30T02:35:04;5.90;99.90
30381;DHT22;17169;50.966;11.038;2024-01-30T02:38:07;5.80;99.90
30381;DHT22;17169;50.966;11.038;2024-01-30T02:41:10;5.80;99.90
30381;DHT22;17169;50.966;11.038;2024-01-30T02:44:12;5.80;99.90
30381;DHT22;17169;50.966;11.038;2024-01-30T02:47:15;5.80;99.90
30381;DHT22;17169;50.966;11.038;2024-01-30T02:50:17;5.80;99.90
30381;DHT22;17169;50.966;11.038;2024-01-30T02:53:21;5.70;99.90
30381;DHT22;17169;50.966;11.038;2024-01-30T02:56:23;5.80;99.90
30381;DHT22;17169;50.966;11.038;2024-01-30T02:59:26;5.80;99.90
30381;DHT22;17169;50.966;11.038;2024-01-30T03:02:28;5.90;99.90
30381;DHT22;17169;50.966;11.038;2024-01-30T03:05:30;5.90;99.90
30381;DHT22;17169;50.966;11.038;2024-01-30T03:08:34;5.80;99.90
30381;DHT22;17169;50.966;11.038;2024-01-30T03:11:36;5.90;99.90
30381;DHT22;17169;50.966;11.038;2024-01-30T03:14:39;5.90;99.90
30381;DHT22;17169;50.966;11.038;2024-01-30T03:17:41;5.90;99.90
30381;DHT22;17169;50.966;11.038;2024-01-30T03:20:44;6.00;99.90
30381;DHT22;17169;50.966;11.038;2024-01-30T03:23:47;6.00;99.90
30381;DHT22;17169;50.966;11.038;2024-01-30T03:26:50;6.10;99.90
30381;DHT22;17169;50.966;11.038;2024-01-30T03:29:52;6.00;99.90
30381;DHT22;17169;50.966;11.038;2024-01-30T03:32:54;6.00;99.90
30381;DHT22;17169;50.966;11.038;2024-01-30T03:35:57;6.00;99.90
30381;DHT22;17169;50.966;11.038;2024-01-30T03:39:00;5.90;99.90
30381;DHT22;17169;50.966;11.038;2024-01-30T03:42:03;5.90;99.90
30381;DHT22;17169;50.966;11.038;2024-01-30T03:45:07;5.80;99.90
30381;DHT22;17169;50.966;11.038;2024-01-30T03:48:09;5.70;99.90
30381;DHT22;17169;50.966;11.038;2024-01-30T03:51:12;5.60;99.90
30381;DHT22;17169;50.966;11.038;2024-01-30T03:54:17;5.60;99.90
30381;DHT22;17169;50.966;11.038;2024-01-30T03:57:19;5.50;99.90
30381;DHT22;17169;50.966;11.038;2024-01-30T04:00:22;5.40;99.90
30381;DHT22;17169;50.966;11.038;2024-01-30T04:03:24;5.40;99.90
30381;DHT22;17169;50.966;11.038;2024-01-30T04:06:27;5.30;99.90
30381;DHT22;17169;50.966;11.038;2024-01-30T04:09:30;5.30;99.90
30381;DHT22;17169;50.966;11.038;2024-01-30T04:12:33;5.30;99.90
30381;DHT22;17169;50.966;11.038;2024-01-30T04:15:36;5.30;99.90
30381;DHT22;17169;50.966;11.038;2024-01-30T04:18:38;5.30;99.90
30381;DHT22;17169;50.966;11.038;2024-01-30T04:21:40;5.20;99.90
30381;DHT22;17169;50.966;11.038;2024-01-30T04:24:44;5.20;99.90
30381;DHT22;17169;50.966;11.038;2024-01-30T04:27:46;5.20;99.90
30381;DHT22;17169;50.966;11.038;2024-01-30T04:30:49;5.20;99.90
30381;DHT22;17169;50.966;11.038;2024-01-30T04:33:52;5.20;99.90
30381;DHT22;17169;50.966;11.038;2024-01-30T04:36:54;5.20;99.90
30381;DHT22;17169;50.966;11.038;2024-01-30T04:39:58;5.30;99.90
30381;DHT22;17169;50.966;11.038;2024-01-30T04:43:00;5.30;99.90
30381;DHT22;17169;50.966;11.038;2024-01-30T04:46:03;5.40;99.90
30381;DHT22;17169;50.966;11.038;2024-01-30T04:49:06;5.40;99.90
30381;DHT22;17169;50.966;11.038;2024-01-30T04:52:09;5.40;99.90
30381;DHT22;17169;50.966;11.038;2024-01-30T04:55:12;5.40;99.90
30381;DHT22;17169;50.966;11.038;2024-01-30T04:58:15;5.40;99.90
30381;DHT22;17169;50.966;11.038;2024-01-30T05:01:17;5.40;99.90
30381;DHT22;17169;50.966;11.038;2024-01-30T05:04:20;5.50;99.90
30381;DHT22;17169;50.966;11.038;2024-01-30T05:07:24;5.50;99.90
30381;DHT22;17169;50.966;11.038;2024-01-30T05:10:27;5.60;99.90
30381;DHT22;17169;50.966;11.038;2024-01-30T05:13:30;5.60;99.90
30381;DHT22;17169;50.966;11.038;2024-01-30T05:16:33;5.70;99.90
30381;DHT22;17169;50.966;11.038;2024-01-30T05:19:35;5.70;99.90
30381;DHT22;17169;50.966;11.038;2024-01-30T05:22:38;5.80;99.90
30381;DHT22;17169;50.966;11.038;2024-01-30T05:25:47;5.80;99.90
30381;DHT22;17169;50.966;11.038;2024-01-30T05:28:49;5.80;99.90
30381;DHT22;17169;50.966;11.038;2024-01-30T05:31:51;5.80;99.90
30381;DHT22;17169;50.966;11.038;2024-01-30T05:34:54;5.90;99.90
30381;DHT22;17169;50.966;11.038;2024-01-30T05:37:56;5.90;99.90
30381;DHT22;17169;50.966;11.038;2024-01-30T05:41:00;5.90;99.90
30381;DHT22;17169;50.966;11.038;2024-01-30T05:44:02;6.00;99.90
30381;DHT22;17169;50.966;11.038;2024-01-30T05:47:05;6.00;99.90
30381;DHT22;17169;50.966;11.038;2024-01-30T05:50:07;6.00;99.90
30381;DHT22;17169;50.966;11.038;2024-01-30T05:53:10;6.00;99.90
30381;DHT22;17169;50.966;11.038;2024-01-30T05:56:13;6.00;99.90
30381;DHT22;17169;50.966;11.038;2024-01-30T05:59:16;6.00;99.90
30381;DHT22;17169;50.966;11.038;2024-01-30T06:02:19;6.00;99.90
30381;DHT22;17169;50.966;11.038;2024-01-30T06:05:21;6.00;99.90
30381;DHT22;17169;50.966;11.038;2024-01-30T06:08:23;6.00;99.90
30381;DHT22;17169;50.966;11.038;2024-01-30T06:11:27;6.10;99.90
30381;DHT22;17169;50.966;11.038;2024-01-30T06:14:29;6.00;99.90
30381;DHT22;17169;50.966;11.038;2024-01-30T06:17:32;6.00;99.90
30381;DHT22;17169;50.966;11.038;2024-01-30T06:20:34;6.00;99.90
30381;DHT22;17169;50.966;11.038;2024-01-30T06:23:37;6.00;99.90
30381;DHT22;17169;50.966;11.038;2024-01-30T06:26:41;6.00;99.90
30381;DHT22;17169;50.966;11.038;2024-01-30T06:29:43;6.00;99.90
30381;DHT22;17169;50.966;11.038;2024-01-30T06:32:46;6.00;99.90
30381;DHT22;17169;50.966;11.038;2024-01-30T06:35:48;6.00;99.90
30381;DHT22;17169;50.966;11.038;2024-01-30T06:38:50;6.00;99.90
30381;DHT22;17169;50.966;11.038;2024-01-30T06:41:54;6.00;99.90
30381;DHT22;17169;50.966;11.038;2024-01-30T06:44:56;6.00;99.90
30381;DHT22;17169;50.966;11.038;2024-01-30T06:47:59;6.00;99.90
30381;DHT22;17169;50.966;11.038;2024-01-30T06:51:02;6.00;99.90
30381;DHT22;17169;50.966;11.038;2024-01-30T06:54:05;6.00;99.90
30381;DHT22;17169;50.966;11.038;2024-01-30T06:57:08;6.00;99.90
30381;DHT22;17169;50.966;11.038;2024-01-30T07:00:14;6.00;99.90
30381;DHT22;17169;50.966;11.038;2024-01-30T07:03:17;6.00;99.90
30381;DHT22;17169;50.966;11.038;2024-01-30T07:06:20;6.00;99.90
30381;DHT22;17169;50.966;11.038;2024-01-30T07:09:23;6.00;99.90
30381;DHT22;17169;50.966;11.038;2024-01-30T07:12:27;6.00;99.90
30381;DHT22;17169;50.966;11.038;2024-01-30T07:15:29;6.00;99.90
30381;DHT22;17169;50.966;11.038;2024-01-30T07:18:31;6.00;99.90
30381;DHT22;17169;50.966;11.038;2024-01-30T07:21:34;6.00;99.90
30381;DHT22;17169;50.966;11.038;2024-01-30T07:24:36;6.10;99.90
30381;DHT22;17169;50.966;11.038;2024-01-30T07:27:40;6.10;99.90
30381;DHT22;17169;50.966;11.038;2024-01-30T07:30:42;6.20;99.90
30381;DHT22;17169;50.966;11.038;2024-01-30T07:33:45;6.20;99.90
30381;DHT22;17169;50.966;11.038;2024-01-30T07:36:47;6.20;99.90
30381;DHT22;17169;50.966;11.038;2024-01-30T07:39:49;6.20;99.90
30381;DHT22;17169;50.966;11.038;2024-01-30T07:42:53;6.30;99.90
30381;DHT22;17169;50.966;11.038;2024-01-30T07:45:56;6.30;99.90
30381;DHT22;17169;50.966;11.038;2024-01-30T07:48:58;6.30;99.90
30381;DHT22;17169;50.966;11.038;2024-01-30T07:52:01;6.40;99.90
30381;DHT22;17169;50.966;11.038;2024-01-30T07:55:06;6.40;99.90
30381;DHT22;17169;50.966;11.038;2024-01-30T07:58:11;6.40;99.90
30381;DHT22;17169;50.966;11.038;2024-01-30T08:01:15;6.40;99.90
30381;DHT22;17169;50.966;11.038;2024-01-30T08:04:17;6.40;99.90
30381;DHT22;17169;50.966;11.038;2024-01-30T08:07:20;6.40;99.90
30381;DHT22;17169;50.966;11.038;2024-01-30T08:10:23;6.40;99.90
30381;DHT22;17169;50.966;11.038;2024-01-30T08:13:27;6.50;99.90
30381;DHT22;17169;50.966;11.038;2024-01-30T08:16:30;6.50;99.90
30381;DHT22;17169;50.966;11.038;2024-01-30T08:19:32;6.50;99.90
30381;DHT22;17169;50.966;11.038;2024-01-30T08:22:34;6.50;99.90
30381;DHT22;17169;50.966;11.038;2024-01-30T08:25:37;6.60;99.90
30381;DHT22;17169;50.966;11.038;2024-01-30T08:28:40;6.60;99.90
30381;DHT22;17169;50.966;11.038;2024-01-30T08:31:43;6.70;99.90
30381;DHT22;17169;50.966;11.038;2024-01-30T08:34:47;6.80;99.90
30381;DHT22;17169;50.966;11.038;2024-01-30T08:37:49;6.80;99.90
30381;DHT22;17169;50.966;11.038;2024-01-30T08:40:51;6.90;99.90
30381;DHT22;17169;50.966;11.038;2024-01-30T08:43:55;7.00;99.90
30381;DHT22;17169;50.966;11.038;2024-01-30T08:46:58;7.00;99.90
30381;DHT22;17169;50.966;11.038;2024-01-30T08:50:00;7.10;99.90
30381;DHT22;17169;50.966;11.038;2024-01-30T08:53:03;7.10;99.90
30381;DHT22;17169;50.966;11.038;2024-01-30T08:56:06;7.20;99.90
30381;DHT22;17169;50.966;11.038;2024-01-30T08:59:10;7.20;99.90
30381;DHT22;17169;50.966;11.038;2024-01-30T09:02:13;7.30;99.90
30381;DHT22;17169;50.966;11.038;2024-01-30T09:05:17;7.30;99.90
30381;DHT22;17169;50.966;11.038;2024-01-30T09:08:19;7.40;99.90
30381;DHT22;17169;50.966;11.038;2024-01-30T09:11:22;7.40;99.90
30381;DHT22;17169;50.966;11.038;2024-01-30T09:14:26;7.40;99.90
30381;DHT22;17169;50.966;11.038;2024-01-30T09:17:28;7.50;99.90
30381;DHT22;17169;50.966;11.038;2024-01-30T09:20:31;7.50;99.90
30381;DHT22;17169;50.966;11.038;2024-01-30T09:23:33;7.60;99.90
30381;DHT22;17169;50.966;11.038;2024-01-30T09:26:36;7.60;99.90
30381;DHT22;17169;50.966;11.038;2024-01-30T09:29:39;7.60;99.90
30381;DHT22;17169;50.966;11.038;2024-01-30T09:32:42;7.70;99.90
30381;DHT22;17169;50.966;11.038;2024-01-30T09:35:45;7.80;99.90
30381;DHT22;17169;50.966;11.038;2024-01-30T09:38:47;7.90;99.90
30381;DHT22;17169;50.966;11.038;2024-01-30T09:41:55;8.00;99.90
30381;DHT22;17169;50.966;11.038;2024-01-30T09:45:00;8.10;99.90
30381;DHT22;17169;50.966;11.038;2024-01-30T09:48:04;8.20;99.90
30381;DHT22;17169;50.966;11.038;2024-01-30T09:51:07;8.30;99.90
30381;DHT22;17169;50.966;11.038;2024-01-30T09:54:10;8.40;99.90
30381;DHT22;17169;50.966;11.038;2024-01-30T09:57:15;8.60;99.90
30381;DHT22;17169;50.966;11.038;2024-01-30T10:00:19;8.70;99.90
30381;DHT22;17169;50.966;11.038;2024-01-30T10:03:23;8.80;99.90
30381;DHT22;17169;50.966;11.038;2024-01-30T10:06:26;9.00;99.90
30381;DHT22;17169;50.966;11.038;2024-01-30T10:09:32;9.10;99.90
30381;DHT22;17169;50.966;11.038;2024-01-30T10:12:34;9.20;99.90
30381;DHT22;17169;50.966;11.038;2024-01-30T10:15:38;9.30;99.90
30381;DHT22;17169;50.966;11.038;2024-01-30T10:18:41;9.40;99.90
30381;DHT22;17169;50.966;11.038;2024-01-30T10:21:43;9.50;99.90
30381;DHT22;17169;50.966;11.038;2024-01-30T10:24:46;9.70;99.90
30381;DHT22;17169;50.966;11.038;2024-01-30T10:27:52;9.80;99.90
30381;DHT22;17169;50.966;11.038;2024-01-30T10:31:00;9.90;99.90
30381;DHT22;17169;50.966;11.038;2024-01-30T10:34:04;10.00;99.90
30381;DHT22;17169;50.966;11.038;2024-01-30T10:37:08;10.10;99.90
30381;DHT22;17169;50.966;11.038;2024-01-30T10:40:14;10.20;99.90
30381;DHT22;17169;50.966;11.038;2024-01-30T10:43:18;10.30;99.90
30381;DHT22;17169;50.966;11.038;2024-01-30T10:46:27;10.50;99.90
30381;DHT22;17169;50.966;11.038;2024-01-30T10:49:32;10.60;99.90
30381;DHT22;17169;50.966;11.038;2024-01-30T10:52:36;10.60;99.90
30381;DHT22;17169;50.966;11.038;2024-01-30T10:55:39;10.70;99.90
30381;DHT22;17169;50.966;11.038;2024-01-30T10:58:41;10.70;99.90
30381;DHT22;17169;50.966;11.038;2024-01-30T11:01:45;10.80;99.90
30381;DHT22;17169;50.966;11.038;2024-01-30T11:04:48;10.80;99.90
30381;DHT22;17169;50.966;11.038;2024-01-30T11:07:50;10.90;99.90
30381;DHT22;17169;50.966;11.038;2024-01-30T11:10:56;10.90;99.90
30381;DHT22;17169;50.966;11.038;2024-01-30T11:14:01;10.90;99.90
30381;DHT22;17169;50.966;11.038;2024-01-30T11:17:05;10.90;99.90
30381;DHT22;17169;50.966;11.038;2024-01-30T11:20:10;10.90;99.90
30381;DHT22;17169;50.966;11.038;2024-01-30T11:23:14;10.90;99.90
30381;DHT22;17169;50.966;11.038;2024-01-30T11:26:16;10.90;99.90
30381;DHT22;17169;50.966;11.038;2024-01-30T11:29:19;11.00;99.90
30381;DHT22;17169;50.966;11.038;2024-01-30T11:32:23;11.00;99.90
30381;DHT22;17169;50.966;11.038;2024-01-30T11:35:26;11.00;99.90
30381;DHT22;17169;50.966;11.038;2024-01-30T11:38:28;11.00;99.90
30381;DHT22;17169;50.966;11.038;2024-01-30T11:41:31;11.00;99.90
30381;DHT22;17169;50.966;11.038;2024-01-30T11:44:34;10.90;99.90
30381;DHT22;17169;50.966;11.038;2024-01-30T11:47:38;10.90;99.90
30381;DHT22;17169;50.966;11.038;2024-01-30T11:50:41;10.80;99.90
30381;DHT22;17169;50.966;11.038;2024-01-30T11:53:43;10.80;99.90
30381;DHT22;17169;50.966;11.038;2024-01-30T11:56:46;10.80;99.90
30381;DHT22;17169;50.966;11.038;2024-01-30T11:59:48;10.80;99.90
30381;DHT22;17169;50.966;11.038;2024-01-30T12:02:53;10.70;99.90
30381;DHT22;17169;50.966;11.038;2024-01-30T12:05:57;10.60;99.90
30381;DHT22;17169;50.966;11.038;2024-01-30T12:09:00;10.60;99.90
30381;DHT22;17169;50.966;11.038;2024-01-30T12:12:07;10.60;99.90
30381;DHT22;17169;50.966;11.038;2024-01-30T12:15:13;10.60;99.90
30381;DHT22;17169;50.966;11.038;2024-01-30T12:18:18;10.70;99.90
30381;DHT22;17169;50.966;11.038;2024-01-30T12:21:21;10.70;99.90
30381;DHT22;17169;50.966;11.038;2024-01-30T12:24:25;10.70;99.90
30381;DHT22;17169;50.966;11.038;2024-01-30T12:27:27;10.70;99.90
30381;DHT22;17169;50.966;11.038;2024-01-30T12:30:30;10.80;99.90
30381;DHT22;17169;50.966;11.038;2024-01-30T12:33:33;10.80;99.90
30381;DHT22;17169;50.966;11.038;2024-01-30T12:36:38;10.90;99.90
30381;DHT22;17169;50.966;11.038;2024-01-30T12:39:40;10.90;99.90
30381;DHT22;17169;50.966;11.038;2024-01-30T12:42:43;10.90;99.90
30381;DHT22;17169;50.966;11.038;2024-01-30T12:45:47;11.00;99.90
30381;DHT22;17169;50.966;11.038;2024-01-30T12:48:51;11.00;99.90
30381;DHT22;17169;50.966;11.038;2024-01-30T12:51:53;11.10;99.90
30381;DHT22;17169;50.966;11.038;2024-01-30T12:54:56;11.10;99.90
30381;DHT22;17169;50.966;11.038;2024-01-30T12:57:58;11.10;99.90
30381;DHT22;17169;50.966;11.038;2024-01-30T13:01:00;11.10;99.90
30381;DHT22;17169;50.966;11.038;2024-01-30T13:04:05;11.10;99.90
30381;DHT22;17169;50.966;11.038;2024-01-30T13:07:07;11.20;99.90
30381;DHT22;17169;50.966;11.038;2024-01-30T13:10:10;11.20;99.90
30381;DHT22;17169;50.966;11.038;2024-01-30T13:13:12;11.30;99.90
30381;DHT22;17169;50.966;11.038;2024-01-30T13:16:15;11.30;99.90
30381;DHT22;17169;50.966;11.038;2024-01-30T13:19:18;11.40;99.90
30381;DHT22;17169;50.966;11.038;2024-01-30T13:22:21;11.40;99.90
30381;DHT22;17169;50.966;11.038;2024-01-30T13:25:23;11.40;99.90
30381;DHT22;17169;50.966;11.038;2024-01-30T13:28:25;11.40;99.90
30381;DHT22;17169;50.966;11.038;2024-01-30T13:31:30;11.50;99.90
30381;DHT22;17169;50.966;11.038;2024-01-30T13:34:34;11.60;99.90
30381;DHT22;17169;50.966;11.038;2024-01-30T13:37:36;11.60;99.90
30381;DHT22;17169;50.966;11.038;2024-01-30T13:40:39;11.60;99.90
30381;DHT22;17169;50.966;11.038;2024-01-30T13:43:41;11.60;99.90
30381;DHT22;17169;50.966;11.038;2024-01-30T13:46:43;11.60;99.90
30381;DHT22;17169;50.966;11.038;2024-01-30T13:49:48;11.60;99.90
30381;DHT22;17169;50.966;11.038;2024-01-30T13:52:51;11.60;99.90
30381;DHT22;17169;50.966;11.038;2024-01-30T13:55:53;11.70;99.90
30381;DHT22;17169;50.966;11.038;2024-01-30T13:58:56;11.70;99.90
30381;DHT22;17169;50.966;11.038;2024-01-30T14:01:58;11.80;99.90
30381;DHT22;17169;50.966;11.038;2024-01-30T14:05:02;11.80;99.90
30381;DHT22;17169;50.966;11.038;2024-01-30T14:08:06;11.80;99.90
30381;DHT22;17169;50.966;11.038;2024-01-30T14:11:09;11.80;99.90
30381;DHT22;17169;50.966;11.038;2024-01-30T14:14:12;11.80;99.90
30381;DHT22;17169;50.966;11.038;2024-01-30T14:17:14;11.80;99.90
30381;DHT22;17169;50.966;11.038;2024-01-30T14:20:18;11.80;99.90
30381;DHT22;17169;50.966;11.038;2024-01-30T14:23:20;11.80;99.90
30381;DHT22;17169;50.966;11.038;2024-01-30T14:26:23;11.90;99.90
30381;DHT22;17169;50.966;11.038;2024-01-30T14:29:25;11.80;99.90
30381;DHT22;17169;50.966;11.038;2024-01-30T14:32:28;11.90;99.90
30381;DHT22;17169;50.966;11.038;2024-01-30T14:35:32;11.90;99.90
30381;DHT22;17169;50.966;11.038;2024-01-30T14:38:34;11.90;99.90
30381;DHT22;17169;50.966;11.038;2024-01-30T14:41:37;12.00;99.90
30381;DHT22;17169;50.966;11.038;2024-01-30T14:44:39;12.00;99.90
30381;DHT22;17169;50.966;11.038;2024-01-30T14:47:41;12.00;99.90
30381;DHT22;17169;50.966;11.038;2024-01-30T14:50:45;12.00;99.90
30381;DHT22;17169;50.966;11.038;2024-01-30T14:53:48;12.00;99.90
30381;DHT22;17169;50.966;11.038;2024-01-30T14:56:50;12.00;99.90
30381;DHT22;17169;50.966;11.038;2024-01-30T14:59:53;12.00;99.90
30381;DHT22;17169;50.966;11.038;2024-01-30T15:02:55;11.90;99.90
30381;DHT22;17169;50.966;11.038;2024-01-30T15:05:59;11.90;99.90
30381;DHT22;17169;50.966;11.038;2024-01-30T15:09:01;11.90;99.90
30381;DHT22;17169;50.966;11.038;2024-01-30T15:12:04;11.80;99.90
30381;DHT22;17169;50.966;11.038;2024-01-30T15:15:08;11.80;99.90
30381;DHT22;17169;50.966;11.038;2024-01-30T15:18:10;11.80;99.90
30381;DHT22;17169;50.966;11.038;2024-01-30T15:21:14;11.70;99.90
30381;DHT22;17169;50.966;11.038;2024-01-30T15:24:21;11.70;99.90
30381;DHT22;17169;50.966;11.038;2024-01-30T15:27:25;11.70;99.90
30381;DHT22;17169;50.966;11.038;2024-01-30T15:30:27;11.70;99.90
30381;DHT22;17169;50.966;11.038;2024-01-30T15:33:30;11.60;99.90
30381;DHT22;17169;50.966;11.038;2024-01-30T15:36:34;11.60;99.90
30381;DHT22;17169;50.966;11.038;2024-01-30T15:39:36;11.60;99.90
30381;DHT22;17169;50.966;11.038;2024-01-30T15:42:38;11.60;99.90
30381;DHT22;17169;50.966;11.038;2024-01-30T15:45:41;11.60;99.90
30381;DHT22;17169;50.966;11.038;2024-01-30T15:48:43;11.50;99.90
30381;DHT22;17169;50.966;11.038;2024-01-30T15:51:47;11.50;99.90
30381;DHT22;17169;50.966;11.038;2024-01-30T15:54:49;11.50;99.90
30381;DHT22;17169;50.966;11.038;2024-01-30T15:57:52;11.40;99.90
30381;DHT22;17169;50.966;11.038;2024-01-30T16:00:54;11.40;99.90
30381;DHT22;17169;50.966;11.038;2024-01-30T16:03:56;11.30;99.90
30381;DHT22;17169;50.966;11.038;2024-01-30T16:07:00;11.30;99.90
30381;DHT22;17169;50.966;11.038;2024-01-30T16:10:03;11.20;99.90
30381;DHT22;17169;50.966;11.038;2024-01-30T16:13:05;11.20;99.90
30381;DHT22;17169;50.966;11.038;2024-01-30T16:16:08;11.20;99.90
30381;DHT22;17169;50.966;11.038;2024-01-30T16:19:11;11.10;99.90
30381;DHT22;17169;50.966;11.038;2024-01-30T16:22:14;11.10;99.90
30381;DHT22;17169;50.966;11.038;2024-01-30T16:25:17;11.10;99.90
30381;DHT22;17169;50.966;11.038;2024-01-30T16:28:23;11.00;99.90
30381;DHT22;17169;50.966;11.038;2024-01-30T16:31:26;11.00;99.90
30381;DHT22;17169;50.966;11.038;2024-01-30T16:34:28;10.90;99.90
30381;DHT22;17169;50.966;11.038;2024-01-30T16:37:32;10.90;99.90
30381;DHT22;17169;50.966;11.038;2024-01-30T16:40:34;10.90;99.90
30381;DHT22;17169;50.966;11.038;2024-01-30T16:43:37;10.80;99.90
30381;DHT22;17169;50.966;11.038;2024-01-30T16:46:39;10.80;99.90
30381;DHT22;17169;50.966;11.038;2024-01-30T16:49:41;10.80;99.90
30381;DHT22;17169;50.966;11.038;2024-01-30T16:52:45;10.80;99.90
30381;DHT22;17169;50.966;11.038;2024-01-30T16:55:47;10.80;99.90
30381;DHT22;17169;50.966;11.038;2024-01-30T16:58:50;10.70;99.90
30381;DHT22;17169;50.966;11.038;2024-01-30T17:01:52;10.70;99.90
30381;DHT22;17169;50.966;11.038;2024-01-30T17:04:55;10.70;99.90
30381;DHT22;17169;50.966;11.038;2024-01-30T17:08:01;10.70;99.90
30381;DHT22;17169;50.966;11.038;2024-01-30T17:11:03;10.70;99.90
30381;DHT22;17169;50.966;11.038;2024-01-30T17:14:05;10.70;99.90
30381;DHT22;17169;50.966;11.038;2024-01-30T17:17:08;10.70;99.90
30381;DHT22;17169;50.966;11.038;2024-01-30T17:20:11;10.60;99.90
30381;DHT22;17169;50.966;11.038;2024-01-30T17:23:15;10.60;99.90
30381;DHT22;17169;50.966;11.038;2024-01-30T17:26:17;10.60;99.90
30381;DHT22;17169;50.966;11.038;2024-01-30T17:29:21;10.70;99.90
30381;DHT22;17169;50.966;11.038;2024-01-30T17:32:24;10.70;99.90
30381;DHT22;17169;50.966;11.038;2024-01-30T17:35:26;10.60;99.90
30381;DHT22;17169;50.966;11.038;2024-01-30T17:38:30;10.70;99.90
30381;DHT22;17169;50.966;11.038;2024-01-30T17:41:32;10.60;99.90
30381;DHT22;17169;50.966;11.038;2024-01-30T17:44:35;10.60;99.90
30381;DHT22;17169;50.966;11.038;2024-01-30T17:47:41;10.60;99.90
30381;DHT22;17169;50.966;11.038;2024-01-30T17:50:43;10.50;99.90
30381;DHT22;17169;50.966;11.038;2024-01-30T17:53:47;10.60;99.90
30381;DHT22;17169;50.966;11.038;2024-01-30T17:56:50;10.50;99.90
30381;DHT22;17169;50.966;11.038;2024-01-30T17:59:52;10.50;99.90
30381;DHT22;17169;50.966;11.038;2024-01-30T18:02:55;10.50;99.90
30381;DHT22;17169;50.966;11.038;2024-01-30T18:05:57;10.40;99.90
30381;DHT22;17169;50.966;11.038;2024-01-30T18:09:02;10.40;99.90
30381;DHT22;17169;50.966;11.038;2024-01-30T18:12:05;10.40;99.90
30381;DHT22;17169;50.966;11.038;2024-01-30T18:15:08;10.40;99.90
30381;DHT22;17169;50.966;11.038;2024-01-30T18:18:11;10.40;99.90
30381;DHT22;17169;50.966;11.038;2024-01-30T18:21:14;10.40;99.90
30381;DHT22;17169;50.966;11.038;2024-01-30T18:24:18;10.40;99.90
30381;DHT22;17169;50.966;11.038;2024-01-30T18:27:22;10.40;99.90
30381;DHT22;17169;50.966;11.038;2024-01-30T18:30:25;10.40;99.90
30381;DHT22;17169;50.966;11.038;2024-01-30T18:33:27;10.40;99.90
30381;DHT22;17169;50.966;11.038;2024-01-30T18:36:29;10.40;99.90
30381;DHT22;17169;50.966;11.038;2024-01-30T18:39:33;10.30;99.90
30381;DHT22;17169;50.966;11.038;2024-01-30T18:42:35;10.30;99.90
30381;DHT22;17169;50.966;11.038;2024-01-30T18:45:38;10.30;99.90
30381;DHT22;17169;50.966;11.038;2024-01-30T18:48:40;10.30;99.90
30381;DHT22;17169;50.966;11.038;2024-01-30T18:51:43;10.30;99.90
30381;DHT22;17169;50.966;11.038;2024-01-30T18:54:46;10.30;99.90
30381;DHT22;17169;50.966;11.038;2024-01-30T18:57:49;10.30;99.90
30381;DHT22;17169;50.966;11.038;2024-01-30T19:00:51;10.20;99.90
30381;DHT22;17169;50.966;11.038;2024-01-30T19:03:53;10.20;99.90
30381;DHT22;17169;50.966;11.038;2024-01-30T19:06:56;10.20;99.90
30381;DHT22;17169;50.966;11.038;2024-01-30T19:10:00;10.20;99.90